sensor_id;sensor_type;location;lat;lon;timestamp;P1;durP1;ratioP1;P2;durP2;ratioP2
8281;SDS011;25606;42.686;23.136;2023-07-02T00:00:10;8.17;;;5.83;;
8281;SDS011;25606;42.686;23.136;2023-07-02T00:02:38;9.03;;;5.63;;
8281;SDS011;25606;42.686;23.136;2023-07-02T00:05:05;9.03;;;5.80;;
8281;SDS011;25606;42.686;23.136;2023-07-02T00:07:33;8.73;;;5.77;;
8281;SDS011;25606;42.686;23.136;2023-07-02T00:10:03;8.60;;;5.60;;
8281;SDS011;25606;42.686;23.136;2023-07-02T00:12:30;9.87;;;6.60;;
8281;SDS011;25606;42.686;23.136;2023-07-02T00:14:57;9.67;;;5.93;;
8281;SDS011;25606;42.686;23.136;2023-07-02T00:17:25;7.63;;;5.97;;
8281;SDS011;25606;42.686;23.136;2023-07-02T00:19:52;8.50;;;6.37;;
8281;SDS011;25606;42.686;23.136;2023-07-02T00:22:19;7.77;;;5.83;;
8281;SDS011;25606;42.686;23.136;2023-07-02T00:24:47;6.70;;;5.77;;
8281;SDS011;25606;42.686;23.136;2023-07-02T00:27:17;7.70;;;6.13;;
8281;SDS011;25606;42.686;23.136;2023-07-02T00:29:44;8.83;;;6.23;;
8281;SDS011;25606;42.686;23.136;2023-07-02T00:32:11;7.13;;;6.20;;
8281;SDS011;25606;42.686;23.136;2023-07-02T00:34:39;7.23;;;6.00;;
8281;SDS011;25606;42.686;23.136;2023-07-02T00:37:06;12.37;;;5.83;;
8281;SDS011;25606;42.686;23.136;2023-07-02T00:39:33;7.23;;;5.80;;
8281;SDS011;25606;42.686;23.136;2023-07-02T00:42:01;12.50;;;6.47;;
8281;SDS011;25606;42.686;23.136;2023-07-02T00:44:30;8.67;;;5.93;;
8281;SDS011;25606;42.686;23.136;2023-07-02T00:46:59;8.07;;;6.13;;
8281;SDS011;25606;42.686;23.136;2023-07-02T00:49:26;8.87;;;6.30;;
8281;SDS011;25606;42.686;23.136;2023-07-02T00:51:54;8.90;;;5.77;;
8281;SDS011;25606;42.686;23.136;2023-07-02T00:54:21;9.77;;;6.87;;
8281;SDS011;25606;42.686;23.136;2023-07-02T00:56:48;8.47;;;6.23;;
8281;SDS011;25606;42.686;23.136;2023-07-02T00:59:16;11.20;;;7.70;;
8281;SDS011;25606;42.686;23.136;2023-07-02T01:01:45;8.40;;;7.13;;
8281;SDS011;25606;42.686;23.136;2023-07-02T01:04:16;13.80;;;7.17;;
8281;SDS011;25606;42.686;23.136;2023-07-02T01:06:44;8.53;;;6.77;;
8281;SDS011;25606;42.686;23.136;2023-07-02T01:09:11;9.03;;;5.97;;
8281;SDS011;25606;42.686;23.136;2023-07-02T01:11:39;8.97;;;6.80;;
8281;SDS011;25606;42.686;23.136;2023-07-02T01:14:08;8.97;;;7.00;;
8281;SDS011;25606;42.686;23.136;2023-07-02T01:16:35;12.33;;;7.50;;
8281;SDS011;25606;42.686;23.136;2023-07-02T01:19:07;10.63;;;7.40;;
8281;SDS011;25606;42.686;23.136;2023-07-02T01:21:39;11.00;;;7.33;;
8281;SDS011;25606;42.686;23.136;2023-07-02T01:24:06;11.03;;;6.80;;
8281;SDS011;25606;42.686;23.136;2023-07-02T01:26:34;9.27;;;6.67;;
8281;SDS011;25606;42.686;23.136;2023-07-02T01:29:12;11.87;;;7.20;;
8281;SDS011;25606;42.686;23.136;2023-07-02T01:31:39;10.47;;;7.20;;
8281;SDS011;25606;42.686;23.136;2023-07-02T01:34:07;11.57;;;6.67;;
8281;SDS011;25606;42.686;23.136;2023-07-02T01:36:34;9.37;;;7.30;;
8281;SDS011;25606;42.686;23.136;2023-07-02T01:39:03;10.10;;;6.93;;
8281;SDS011;25606;42.686;23.136;2023-07-02T01:41:31;9.97;;;6.93;;
8281;SDS011;25606;42.686;23.136;2023-07-02T01:43:59;10.87;;;7.63;;
8281;SDS011;25606;42.686;23.136;2023-07-02T01:46:26;9.43;;;7.07;;
8281;SDS011;25606;42.686;23.136;2023-07-02T01:48:54;10.40;;;7.40;;
8281;SDS011;25606;42.686;23.136;2023-07-02T01:51:21;9.53;;;7.03;;
8281;SDS011;25606;42.686;23.136;2023-07-02T01:53:48;9.97;;;7.27;;
8281;SDS011;25606;42.686;23.136;2023-07-02T01:56:17;9.67;;;7.23;;
8281;SDS011;25606;42.686;23.136;2023-07-02T01:58:44;10.30;;;6.83;;
8281;SDS011;25606;42.686;23.136;2023-07-02T02:01:11;7.47;;;6.53;;
8281;SDS011;25606;42.686;23.136;2023-07-02T02:03:39;10.57;;;6.57;;
8281;SDS011;25606;42.686;23.136;2023-07-02T02:06:07;10.57;;;6.50;;
8281;SDS011;25606;42.686;23.136;2023-07-02T02:08:34;9.17;;;6.20;;
8281;SDS011;25606;42.686;23.136;2023-07-02T02:11:01;10.57;;;6.60;;
8281;SDS011;25606;42.686;23.136;2023-07-02T02:13:30;8.10;;;6.53;;
8281;SDS011;25606;42.686;23.136;2023-07-02T02:15:57;8.27;;;5.87;;
8281;SDS011;25606;42.686;23.136;2023-07-02T02:18:24;7.77;;;5.97;;
8281;SDS011;25606;42.686;23.136;2023-07-02T02:20:52;8.00;;;6.00;;
8281;SDS011;25606;42.686;23.136;2023-07-02T02:23:19;8.70;;;5.30;;
8281;SDS011;25606;42.686;23.136;2023-07-02T02:25:46;7.43;;;5.60;;
8281;SDS011;25606;42.686;23.136;2023-07-02T02:28:14;6.27;;;5.10;;
8281;SDS011;25606;42.686;23.136;2023-07-02T02:30:42;5.93;;;4.50;;
8281;SDS011;25606;42.686;23.136;2023-07-02T02:33:13;7.00;;;4.80;;
8281;SDS011;25606;42.686;23.136;2023-07-02T02:35:40;4.70;;;4.17;;
8281;SDS011;25606;42.686;23.136;2023-07-02T02:38:07;4.60;;;4.00;;
8281;SDS011;25606;42.686;23.136;2023-07-02T02:40:34;4.83;;;3.53;;
8281;SDS011;25606;42.686;23.136;2023-07-02T02:43:02;4.53;;;3.50;;
8281;SDS011;25606;42.686;23.136;2023-07-02T02:45:29;4.00;;;3.43;;
8281;SDS011;25606;42.686;23.136;2023-07-02T02:47:58;3.73;;;2.93;;
8281;SDS011;25606;42.686;23.136;2023-07-02T02:50:25;3.67;;;2.83;;
8281;SDS011;25606;42.686;23.136;2023-07-02T02:52:53;3.93;;;3.10;;
8281;SDS011;25606;42.686;23.136;2023-07-02T02:55:20;3.33;;;2.93;;
8281;SDS011;25606;42.686;23.136;2023-07-02T02:57:47;3.77;;;3.10;;
8281;SDS011;25606;42.686;23.136;2023-07-02T03:00:15;4.60;;;3.03;;
8281;SDS011;25606;42.686;23.136;2023-07-02T03:02:43;3.23;;;2.60;;
8281;SDS011;25606;42.686;23.136;2023-07-02T03:05:11;4.50;;;2.87;;
8281;SDS011;25606;42.686;23.136;2023-07-02T03:07:41;3.33;;;3.03;;
8281;SDS011;25606;42.686;23.136;2023-07-02T03:10:09;3.10;;;2.80;;
8281;SDS011;25606;42.686;23.136;2023-07-02T03:12:36;4.80;;;3.27;;
8281;SDS011;25606;42.686;23.136;2023-07-02T03:15:04;4.43;;;3.20;;
8281;SDS011;25606;42.686;23.136;2023-07-02T03:17:31;5.13;;;3.33;;
8281;SDS011;25606;42.686;23.136;2023-07-02T03:19:58;3.07;;;2.77;;
8281;SDS011;25606;42.686;23.136;2023-07-02T03:22:27;3.80;;;3.17;;
8281;SDS011;25606;42.686;23.136;2023-07-02T03:24:55;4.83;;;2.93;;
8281;SDS011;25606;42.686;23.136;2023-07-02T03:27:22;4.20;;;3.37;;
8281;SDS011;25606;42.686;23.136;2023-07-02T03:29:51;3.87;;;2.90;;
8281;SDS011;25606;42.686;23.136;2023-07-02T03:32:18;4.60;;;3.43;;
8281;SDS011;25606;42.686;23.136;2023-07-02T03:34:45;4.07;;;3.27;;
8281;SDS011;25606;42.686;23.136;2023-07-02T03:37:13;4.50;;;3.63;;
8281;SDS011;25606;42.686;23.136;2023-07-02T03:39:43;4.50;;;3.27;;
8281;SDS011;25606;42.686;23.136;2023-07-02T03:42:10;4.23;;;3.33;;
8281;SDS011;25606;42.686;23.136;2023-07-02T03:44:37;4.77;;;3.73;;
8281;SDS011;25606;42.686;23.136;2023-07-02T03:47:05;3.93;;;3.17;;
8281;SDS011;25606;42.686;23.136;2023-07-02T03:49:33;5.07;;;3.53;;
8281;SDS011;25606;42.686;23.136;2023-07-02T03:52:01;4.93;;;4.03;;
8281;SDS011;25606;42.686;23.136;2023-07-02T03:54:28;3.93;;;3.37;;
8281;SDS011;25606;42.686;23.136;2023-07-02T03:56:57;4.33;;;3.50;;
8281;SDS011;25606;42.686;23.136;2023-07-02T03:59:24;3.30;;;3.00;;
8281;SDS011;25606;42.686;23.136;2023-07-02T04:01:51;4.37;;;3.83;;
8281;SDS011;25606;42.686;23.136;2023-07-02T04:04:19;7.67;;;5.37;;
8281;SDS011;25606;42.686;23.136;2023-07-02T04:06:46;10.80;;;7.97;;
8281;SDS011;25606;42.686;23.136;2023-07-02T04:09:14;10.70;;;7.37;;
8281;SDS011;25606;42.686;23.136;2023-07-02T04:11:43;12.23;;;7.33;;
8281;SDS011;25606;42.686;23.136;2023-07-02T04:14:12;9.27;;;6.87;;
8281;SDS011;25606;42.686;23.136;2023-07-02T04:16:39;10.40;;;7.87;;
8281;SDS011;25606;42.686;23.136;2023-07-02T04:19:06;8.30;;;7.40;;
8281;SDS011;25606;42.686;23.136;2023-07-02T04:21:34;7.93;;;7.13;;
8281;SDS011;25606;42.686;23.136;2023-07-02T04:24:01;10.67;;;8.10;;
8281;SDS011;25606;42.686;23.136;2023-07-02T04:26:28;9.60;;;7.40;;
8281;SDS011;25606;42.686;23.136;2023-07-02T04:28:56;9.27;;;7.10;;
8281;SDS011;25606;42.686;23.136;2023-07-02T04:31:25;10.30;;;7.50;;
8281;SDS011;25606;42.686;23.136;2023-07-02T04:33:52;9.77;;;7.07;;
8281;SDS011;25606;42.686;23.136;2023-07-02T04:36:20;11.10;;;7.27;;
8281;SDS011;25606;42.686;23.136;2023-07-02T04:38:47;9.83;;;7.67;;
8281;SDS011;25606;42.686;23.136;2023-07-02T04:41:14;12.50;;;8.27;;
8281;SDS011;25606;42.686;23.136;2023-07-02T04:43:43;9.47;;;7.70;;
8281;SDS011;25606;42.686;23.136;2023-07-02T04:46:11;12.63;;;8.20;;
8281;SDS011;25606;42.686;23.136;2023-07-02T04:48:40;10.93;;;7.37;;
8281;SDS011;25606;42.686;23.136;2023-07-02T04:51:07;10.73;;;7.80;;
8281;SDS011;25606;42.686;23.136;2023-07-02T04:53:34;9.10;;;6.87;;
8281;SDS011;25606;42.686;23.136;2023-07-02T04:56:03;8.80;;;7.37;;
8281;SDS011;25606;42.686;23.136;2023-07-02T04:58:30;10.80;;;7.30;;
8281;SDS011;25606;42.686;23.136;2023-07-02T05:00:57;8.83;;;7.93;;
8281;SDS011;25606;42.686;23.136;2023-07-02T05:03:25;13.10;;;7.03;;
8281;SDS011;25606;42.686;23.136;2023-07-02T05:05:54;10.33;;;7.03;;
8281;SDS011;25606;42.686;23.136;2023-07-02T05:08:22;14.60;;;6.47;;
8281;SDS011;25606;42.686;23.136;2023-07-02T05:10:49;9.43;;;6.60;;
8281;SDS011;25606;42.686;23.136;2023-07-02T05:13:16;9.03;;;6.33;;
8281;SDS011;25606;42.686;23.136;2023-07-02T05:15:44;10.53;;;7.53;;
8281;SDS011;25606;42.686;23.136;2023-07-02T05:18:11;9.43;;;5.87;;
8281;SDS011;25606;42.686;23.136;2023-07-02T05:20:38;7.83;;;5.50;;
8281;SDS011;25606;42.686;23.136;2023-07-02T05:23:07;7.93;;;5.40;;
8281;SDS011;25606;42.686;23.136;2023-07-02T05:25:34;10.10;;;5.57;;
8281;SDS011;25606;42.686;23.136;2023-07-02T05:28:01;8.40;;;4.83;;
8281;SDS011;25606;42.686;23.136;2023-07-02T05:30:29;6.53;;;4.77;;
8281;SDS011;25606;42.686;23.136;2023-07-02T05:32:56;6.67;;;5.20;;
8281;SDS011;25606;42.686;23.136;2023-07-02T05:35:23;13.30;;;4.83;;
8281;SDS011;25606;42.686;23.136;2023-07-02T05:37:50;7.87;;;5.10;;
8281;SDS011;25606;42.686;23.136;2023-07-02T05:40:19;5.93;;;4.67;;
8281;SDS011;25606;42.686;23.136;2023-07-02T05:42:46;6.67;;;5.10;;
8281;SDS011;25606;42.686;23.136;2023-07-02T05:45:14;8.13;;;5.00;;
8281;SDS011;25606;42.686;23.136;2023-07-02T05:47:41;7.93;;;5.30;;
8281;SDS011;25606;42.686;23.136;2023-07-02T05:50:09;7.90;;;5.23;;
8281;SDS011;25606;42.686;23.136;2023-07-02T05:52:36;6.53;;;4.30;;
8281;SDS011;25606;42.686;23.136;2023-07-02T05:55:04;8.90;;;5.20;;
8281;SDS011;25606;42.686;23.136;2023-07-02T05:57:32;7.43;;;5.87;;
8281;SDS011;25606;42.686;23.136;2023-07-02T06:00:00;10.67;;;6.70;;
8281;SDS011;25606;42.686;23.136;2023-07-02T06:02:27;9.73;;;6.33;;
8281;SDS011;25606;42.686;23.136;2023-07-02T06:04:55;7.00;;;5.47;;
8281;SDS011;25606;42.686;23.136;2023-07-02T06:07:22;8.97;;;6.20;;
8281;SDS011;25606;42.686;23.136;2023-07-02T06:09:50;7.57;;;5.53;;
8281;SDS011;25606;42.686;23.136;2023-07-02T06:12:17;7.67;;;5.50;;
8281;SDS011;25606;42.686;23.136;2023-07-02T06:14:47;7.53;;;5.30;;
8281;SDS011;25606;42.686;23.136;2023-07-02T06:17:14;8.30;;;5.57;;
8281;SDS011;25606;42.686;23.136;2023-07-02T06:19:42;7.53;;;5.07;;
8281;SDS011;25606;42.686;23.136;2023-07-02T06:22:09;7.50;;;4.90;;
8281;SDS011;25606;42.686;23.136;2023-07-02T06:24:36;9.03;;;4.60;;
8281;SDS011;25606;42.686;23.136;2023-07-02T06:27:04;5.87;;;3.57;;
8281;SDS011;25606;42.686;23.136;2023-07-02T06:29:31;8.50;;;4.17;;
8281;SDS011;25606;42.686;23.136;2023-07-02T06:32:00;7.53;;;4.17;;
8281;SDS011;25606;42.686;23.136;2023-07-02T06:34:28;6.40;;;3.80;;
8281;SDS011;25606;42.686;23.136;2023-07-02T06:36:55;7.47;;;4.47;;
8281;SDS011;25606;42.686;23.136;2023-07-02T06:39:22;7.83;;;4.23;;
8281;SDS011;25606;42.686;23.136;2023-07-02T06:41:50;9.37;;;4.77;;
8281;SDS011;25606;42.686;23.136;2023-07-02T06:44:17;8.30;;;4.63;;
8281;SDS011;25606;42.686;23.136;2023-07-02T06:46:45;6.63;;;4.43;;
8281;SDS011;25606;42.686;23.136;2023-07-02T06:49:14;9.93;;;4.87;;
8281;SDS011;25606;42.686;23.136;2023-07-02T06:51:41;8.10;;;4.63;;
8281;SDS011;25606;42.686;23.136;2023-07-02T06:54:08;11.13;;;5.33;;
8281;SDS011;25606;42.686;23.136;2023-07-02T06:56:36;8.83;;;5.03;;
8281;SDS011;25606;42.686;23.136;2023-07-02T06:59:03;12.20;;;5.37;;
8281;SDS011;25606;42.686;23.136;2023-07-02T07:01:30;14.53;;;5.53;;
8281;SDS011;25606;42.686;23.136;2023-07-02T07:03:58;12.38;;;5.97;;
8281;SDS011;25606;42.686;23.136;2023-07-02T07:06:26;14.43;;;6.25;;
8281;SDS011;25606;42.686;23.136;2023-07-02T07:08:54;18.10;;;7.63;;
8281;SDS011;25606;42.686;23.136;2023-07-02T07:11:21;19.45;;;10.52;;
8281;SDS011;25606;42.686;23.136;2023-07-02T07:13:48;29.38;;;15.88;;
8281;SDS011;25606;42.686;23.136;2023-07-02T07:16:16;26.17;;;16.05;;
8281;SDS011;25606;42.686;23.136;2023-07-02T07:18:43;28.80;;;21.52;;
8281;SDS011;25606;42.686;23.136;2023-07-02T07:21:11;34.85;;;23.58;;
8281;SDS011;25606;42.686;23.136;2023-07-02T07:23:39;57.03;;;38.70;;
8281;SDS011;25606;42.686;23.136;2023-07-02T07:26:09;47.08;;;37.40;;
8281;SDS011;25606;42.686;23.136;2023-07-02T07:28:37;73.82;;;60.20;;
8281;SDS011;25606;42.686;23.136;2023-07-02T07:31:07;89.25;;;79.47;;
8281;SDS011;25606;42.686;23.136;2023-07-02T07:33:36;99.43;;;88.85;;
8281;SDS011;25606;42.686;23.136;2023-07-02T07:36:16;76.40;;;68.78;;
8281;SDS011;25606;42.686;23.136;2023-07-02T07:39:03;70.15;;;62.65;;
8281;SDS011;25606;42.686;23.136;2023-07-02T07:41:51;103.60;;;93.22;;
8281;SDS011;25606;42.686;23.136;2023-07-02T07:44:25;131.32;;;118.25;;
8281;SDS011;25606;42.686;23.136;2023-07-02T07:47:00;94.45;;;84.43;;
8281;SDS011;25606;42.686;23.136;2023-07-02T07:52:19;135.93;;;122.05;;
8281;SDS011;25606;42.686;23.136;2023-07-02T07:54:53;159.13;;;143.27;;
8281;SDS011;25606;42.686;23.136;2023-07-02T07:57:23;135.88;;;122.28;;
8281;SDS011;25606;42.686;23.136;2023-07-02T07:59:52;122.85;;;110.63;;
8281;SDS011;25606;42.686;23.136;2023-07-02T08:02:25;90.93;;;81.90;;
8281;SDS011;25606;42.686;23.136;2023-07-02T08:04:56;89.63;;;80.68;;
8281;SDS011;25606;42.686;23.136;2023-07-02T08:07:34;86.57;;;78.20;;
8281;SDS011;25606;42.686;23.136;2023-07-02T08:10:11;29.45;;;13.30;;
8281;SDS011;25606;42.686;23.136;2023-07-02T08:12:38;42.28;;;34.60;;
8281;SDS011;25606;42.686;23.136;2023-07-02T08:15:08;24.77;;;14.48;;
8281;SDS011;25606;42.686;23.136;2023-07-02T08:17:39;24.75;;;15.25;;
8281;SDS011;25606;42.686;23.136;2023-07-02T08:20:11;48.83;;;40.78;;
8281;SDS011;25606;42.686;23.136;2023-07-02T08:22:45;49.70;;;38.72;;
8281;SDS011;25606;42.686;23.136;2023-07-02T08:25:25;44.03;;;34.72;;
8281;SDS011;25606;42.686;23.136;2023-07-02T08:27:55;61.45;;;53.35;;
8281;SDS011;25606;42.686;23.136;2023-07-02T08:30:23;49.80;;;42.85;;
8281;SDS011;25606;42.686;23.136;2023-07-02T08:32:50;71.10;;;64.32;;
8281;SDS011;25606;42.686;23.136;2023-07-02T08:35:19;41.03;;;34.55;;
8281;SDS011;25606;42.686;23.136;2023-07-02T08:37:46;36.17;;;31.27;;
8281;SDS011;25606;42.686;23.136;2023-07-02T08:40:18;65.47;;;58.97;;
8281;SDS011;25606;42.686;23.136;2023-07-02T08:42:46;80.43;;;73.25;;
8281;SDS011;25606;42.686;23.136;2023-07-02T08:45:13;103.18;;;93.47;;
8281;SDS011;25606;42.686;23.136;2023-07-02T08:47:42;106.00;;;95.35;;
8281;SDS011;25606;42.686;23.136;2023-07-02T08:50:10;128.60;;;116.53;;
8281;SDS011;25606;42.686;23.136;2023-07-02T08:52:38;122.03;;;111.28;;
8281;SDS011;25606;42.686;23.136;2023-07-02T08:55:05;112.95;;;103.07;;
8281;SDS011;25606;42.686;23.136;2023-07-02T08:57:35;120.88;;;108.88;;
8281;SDS011;25606;42.686;23.136;2023-07-02T09:00:07;162.98;;;148.23;;
8281;SDS011;25606;42.686;23.136;2023-07-02T09:02:36;166.35;;;150.95;;
8281;SDS011;25606;42.686;23.136;2023-07-02T09:05:05;186.05;;;169.30;;
8281;SDS011;25606;42.686;23.136;2023-07-02T09:07:42;176.40;;;160.50;;
8281;SDS011;25606;42.686;23.136;2023-07-02T09:10:10;162.18;;;148.18;;
8281;SDS011;25606;42.686;23.136;2023-07-02T09:12:38;189.95;;;172.48;;
8281;SDS011;25606;42.686;23.136;2023-07-02T09:15:06;204.50;;;186.20;;
8281;SDS011;25606;42.686;23.136;2023-07-02T09:17:34;207.98;;;188.80;;
8281;SDS011;25606;42.686;23.136;2023-07-02T09:20:02;135.65;;;125.07;;
8281;SDS011;25606;42.686;23.136;2023-07-02T09:22:32;150.07;;;136.55;;
8281;SDS011;25606;42.686;23.136;2023-07-02T09:25:00;143.30;;;130.40;;
8281;SDS011;25606;42.686;23.136;2023-07-02T09:27:34;98.05;;;89.78;;
8281;SDS011;25606;42.686;23.136;2023-07-02T09:30:12;106.68;;;95.93;;
8281;SDS011;25606;42.686;23.136;2023-07-02T09:32:41;91.25;;;82.38;;
8281;SDS011;25606;42.686;23.136;2023-07-02T09:35:09;84.10;;;75.53;;
8281;SDS011;25606;42.686;23.136;2023-07-02T09:37:37;40.55;;;29.60;;
8281;SDS011;25606;42.686;23.136;2023-07-02T09:40:06;62.58;;;56.53;;
8281;SDS011;25606;42.686;23.136;2023-07-02T09:42:34;67.55;;;61.10;;
8281;SDS011;25606;42.686;23.136;2023-07-02T09:45:02;30.02;;;26.83;;
8281;SDS011;25606;42.686;23.136;2023-07-02T09:47:30;65.00;;;56.90;;
8281;SDS011;25606;42.686;23.136;2023-07-02T09:49:59;67.82;;;61.20;;
8281;SDS011;25606;42.686;23.136;2023-07-02T09:52:30;64.13;;;55.45;;
8281;SDS011;25606;42.686;23.136;2023-07-02T09:54:58;34.58;;;25.70;;
8281;SDS011;25606;42.686;23.136;2023-07-02T09:57:25;53.80;;;47.88;;
8281;SDS011;25606;42.686;23.136;2023-07-02T09:59:56;40.85;;;33.60;;
8281;SDS011;25606;42.686;23.136;2023-07-02T10:02:23;66.28;;;59.83;;
8281;SDS011;25606;42.686;23.136;2023-07-02T10:04:52;78.00;;;70.47;;
8281;SDS011;25606;42.686;23.136;2023-07-02T10:07:25;103.93;;;93.95;;
8281;SDS011;25606;42.686;23.136;2023-07-02T10:09:53;144.80;;;130.73;;
8281;SDS011;25606;42.686;23.136;2023-07-02T10:12:21;175.57;;;158.98;;
8281;SDS011;25606;42.686;23.136;2023-07-02T10:14:48;150.98;;;137.13;;
8281;SDS011;25606;42.686;23.136;2023-07-02T10:17:25;180.88;;;163.70;;
8281;SDS011;25606;42.686;23.136;2023-07-02T10:19:55;194.00;;;175.75;;
8281;SDS011;25606;42.686;23.136;2023-07-02T10:22:25;192.30;;;175.77;;
8281;SDS011;25606;42.686;23.136;2023-07-02T10:25:23;183.45;;;166.73;;
8281;SDS011;25606;42.686;23.136;2023-07-02T10:27:42;202.38;;;184.27;;
8281;SDS011;25606;42.686;23.136;2023-07-02T10:30:17;201.52;;;183.40;;
8281;SDS011;25606;42.686;23.136;2023-07-02T10:32:45;185.13;;;168.48;;
8281;SDS011;25606;42.686;23.136;2023-07-02T10:35:14;178.07;;;162.65;;
8281;SDS011;25606;42.686;23.136;2023-07-02T10:37:42;161.77;;;148.35;;
8281;SDS011;25606;42.686;23.136;2023-07-02T10:40:19;157.85;;;143.23;;
8281;SDS011;25606;42.686;23.136;2023-07-02T10:42:51;152.38;;;139.18;;
8281;SDS011;25606;42.686;23.136;2023-07-02T10:45:19;177.38;;;161.73;;
8281;SDS011;25606;42.686;23.136;2023-07-02T10:47:47;200.20;;;182.23;;
8281;SDS011;25606;42.686;23.136;2023-07-02T10:50:16;229.63;;;209.07;;
8281;SDS011;25606;42.686;23.136;2023-07-02T10:52:44;234.30;;;214.05;;
8281;SDS011;25606;42.686;23.136;2023-07-02T10:55:15;165.98;;;152.07;;
8281;SDS011;25606;42.686;23.136;2023-07-02T10:57:43;139.73;;;127.47;;
8281;SDS011;25606;42.686;23.136;2023-07-02T11:00:11;106.95;;;97.90;;
8281;SDS011;25606;42.686;23.136;2023-07-02T11:02:38;93.22;;;85.57;;
8281;SDS011;25606;42.686;23.136;2023-07-02T11:05:06;74.00;;;67.30;;
8281;SDS011;25606;42.686;23.136;2023-07-02T11:07:38;80.68;;;72.60;;
8281;SDS011;25606;42.686;23.136;2023-07-02T11:10:06;43.10;;;38.20;;
8281;SDS011;25606;42.686;23.136;2023-07-02T11:12:33;32.47;;;25.67;;
8281;SDS011;25606;42.686;23.136;2023-07-02T11:15:07;23.48;;;20.75;;
8281;SDS011;25606;42.686;23.136;2023-07-02T11:17:34;29.33;;;22.48;;
8281;SDS011;25606;42.686;23.136;2023-07-02T11:20:02;25.95;;;20.63;;
8281;SDS011;25606;42.686;23.136;2023-07-02T11:22:31;22.23;;;10.40;;
8281;SDS011;25606;42.686;23.136;2023-07-02T11:25:09;15.90;;;5.80;;
8281;SDS011;25606;42.686;23.136;2023-07-02T11:27:36;12.50;;;5.05;;
8281;SDS011;25606;42.686;23.136;2023-07-02T11:30:04;7.00;;;3.85;;
8281;SDS011;25606;42.686;23.136;2023-07-02T11:32:34;10.25;;;4.82;;
8281;SDS011;25606;42.686;23.136;2023-07-02T11:35:02;10.27;;;5.00;;
8281;SDS011;25606;42.686;23.136;2023-07-02T11:37:29;9.52;;;4.45;;
8281;SDS011;25606;42.686;23.136;2023-07-02T11:39:56;10.63;;;4.47;;
8281;SDS011;25606;42.686;23.136;2023-07-02T11:42:25;7.93;;;4.87;;
8281;SDS011;25606;42.686;23.136;2023-07-02T11:44:52;6.85;;;4.25;;
8281;SDS011;25606;42.686;23.136;2023-07-02T11:47:20;7.45;;;3.95;;
8281;SDS011;25606;42.686;23.136;2023-07-02T11:49:50;8.93;;;4.75;;
8281;SDS011;25606;42.686;23.136;2023-07-02T11:52:44;10.85;;;5.13;;
8281;SDS011;25606;42.686;23.136;2023-07-02T11:55:17;9.63;;;4.72;;
8281;SDS011;25606;42.686;23.136;2023-07-02T11:57:46;12.05;;;5.43;;
8281;SDS011;25606;42.686;23.136;2023-07-02T12:00:15;15.70;;;5.97;;
8281;SDS011;25606;42.686;23.136;2023-07-02T12:02:45;14.70;;;6.05;;
8281;SDS011;25606;42.686;23.136;2023-07-02T12:05:20;14.30;;;6.30;;
8281;SDS011;25606;42.686;23.136;2023-07-02T12:07:48;17.65;;;7.43;;
8281;SDS011;25606;42.686;23.136;2023-07-02T12:10:18;15.43;;;6.80;;
8281;SDS011;25606;42.686;23.136;2023-07-02T12:12:48;13.50;;;6.65;;
8281;SDS011;25606;42.686;23.136;2023-07-02T12:15:16;19.00;;;8.52;;
8281;SDS011;25606;42.686;23.136;2023-07-02T12:17:43;20.45;;;9.50;;
8281;SDS011;25606;42.686;23.136;2023-07-02T12:20:14;58.45;;;38.67;;
8281;SDS011;25606;42.686;23.136;2023-07-02T12:22:44;73.78;;;66.80;;
8281;SDS011;25606;42.686;23.136;2023-07-02T12:25:25;133.50;;;120.90;;
8281;SDS011;25606;42.686;23.136;2023-07-02T12:27:59;159.27;;;143.75;;
8281;SDS011;25606;42.686;23.136;2023-07-02T12:30:27;168.52;;;152.52;;
8281;SDS011;25606;42.686;23.136;2023-07-02T12:32:54;134.73;;;122.15;;
8281;SDS011;25606;42.686;23.136;2023-07-02T12:35:25;134.82;;;118.40;;
8281;SDS011;25606;42.686;23.136;2023-07-02T12:37:55;130.43;;;118.30;;
8281;SDS011;25606;42.686;23.136;2023-07-02T12:40:22;103.82;;;94.57;;
8281;SDS011;25606;42.686;23.136;2023-07-02T12:42:50;129.85;;;117.35;;
8281;SDS011;25606;42.686;23.136;2023-07-02T12:45:19;166.57;;;151.25;;
8281;SDS011;25606;42.686;23.136;2023-07-02T12:47:48;178.80;;;161.90;;
8281;SDS011;25606;42.686;23.136;2023-07-02T12:50:16;199.98;;;181.60;;
8281;SDS011;25606;42.686;23.136;2023-07-02T12:52:43;143.80;;;131.27;;
8281;SDS011;25606;42.686;23.136;2023-07-02T12:55:10;118.60;;;108.00;;
8281;SDS011;25606;42.686;23.136;2023-07-02T12:57:38;100.50;;;91.63;;
8281;SDS011;25606;42.686;23.136;2023-07-02T13:00:05;58.50;;;52.80;;
8281;SDS011;25606;42.686;23.136;2023-07-02T13:02:35;50.80;;;44.70;;
8281;SDS011;25606;42.686;23.136;2023-07-02T13:05:03;25.60;;;20.48;;
8281;SDS011;25606;42.686;23.136;2023-07-02T13:07:30;21.02;;;12.27;;
8281;SDS011;25606;42.686;23.136;2023-07-02T13:09:58;25.60;;;11.95;;
8281;SDS011;25606;42.686;23.136;2023-07-02T13:12:25;17.48;;;8.43;;
8281;SDS011;25606;42.686;23.136;2023-07-02T13:14:52;20.35;;;8.70;;
8281;SDS011;25606;42.686;23.136;2023-07-02T13:17:20;13.77;;;6.43;;
8281;SDS011;25606;42.686;23.136;2023-07-02T13:19:53;12.90;;;6.68;;
8281;SDS011;25606;42.686;23.136;2023-07-02T13:22:21;14.18;;;6.65;;
8281;SDS011;25606;42.686;23.136;2023-07-02T13:24:48;13.32;;;6.55;;
8281;SDS011;25606;42.686;23.136;2023-07-02T13:27:15;9.80;;;5.50;;
8281;SDS011;25606;42.686;23.136;2023-07-02T13:29:44;11.65;;;6.75;;
8281;SDS011;25606;42.686;23.136;2023-07-02T13:32:11;11.55;;;6.43;;
8281;SDS011;25606;42.686;23.136;2023-07-02T13:34:39;12.02;;;7.22;;
8281;SDS011;25606;42.686;23.136;2023-07-02T13:37:08;12.77;;;6.90;;
8281;SDS011;25606;42.686;23.136;2023-07-02T13:39:35;14.23;;;7.33;;
8281;SDS011;25606;42.686;23.136;2023-07-02T13:42:02;14.70;;;7.67;;
8281;SDS011;25606;42.686;23.136;2023-07-02T13:44:30;12.40;;;7.30;;
8281;SDS011;25606;42.686;23.136;2023-07-02T13:46:57;9.43;;;6.33;;
8281;SDS011;25606;42.686;23.136;2023-07-02T13:49:25;11.37;;;7.57;;
8281;SDS011;25606;42.686;23.136;2023-07-02T13:51:52;8.47;;;6.23;;
8281;SDS011;25606;42.686;23.136;2023-07-02T13:54:21;7.80;;;6.30;;
8281;SDS011;25606;42.686;23.136;2023-07-02T13:56:49;8.93;;;6.37;;
8281;SDS011;25606;42.686;23.136;2023-07-02T13:59:18;9.33;;;6.80;;
8281;SDS011;25606;42.686;23.136;2023-07-02T14:01:45;9.30;;;6.60;;
8281;SDS011;25606;42.686;23.136;2023-07-02T14:04:14;10.03;;;6.73;;
8281;SDS011;25606;42.686;23.136;2023-07-02T14:06:42;9.00;;;7.00;;
8281;SDS011;25606;42.686;23.136;2023-07-02T14:09:09;8.17;;;7.03;;
8281;SDS011;25606;42.686;23.136;2023-07-02T14:11:38;8.27;;;6.80;;
8281;SDS011;25606;42.686;23.136;2023-07-02T14:14:05;7.47;;;6.67;;
8281;SDS011;25606;42.686;23.136;2023-07-02T14:16:34;7.27;;;6.43;;
8281;SDS011;25606;42.686;23.136;2023-07-02T14:19:02;8.33;;;7.20;;
8281;SDS011;25606;42.686;23.136;2023-07-02T14:21:29;8.07;;;6.53;;
8281;SDS011;25606;42.686;23.136;2023-07-02T14:23:57;8.87;;;6.80;;
8281;SDS011;25606;42.686;23.136;2023-07-02T14:26:24;8.23;;;7.33;;
8281;SDS011;25606;42.686;23.136;2023-07-02T14:28:52;10.57;;;8.30;;
8281;SDS011;25606;42.686;23.136;2023-07-02T14:31:19;10.20;;;8.13;;
8281;SDS011;25606;42.686;23.136;2023-07-02T14:33:48;12.53;;;8.13;;
8281;SDS011;25606;42.686;23.136;2023-07-02T14:36:16;10.03;;;7.70;;
8281;SDS011;25606;42.686;23.136;2023-07-02T14:38:50;11.47;;;8.67;;
8281;SDS011;25606;42.686;23.136;2023-07-02T14:41:20;9.03;;;7.13;;